createdAt,value
2019-02-15T10:46:37.788Z,8.71
2019-02-15T10:50:23.859Z,8.98
2019-02-15T10:52:53.252Z,8.93
2019-02-15T10:55:22.835Z,9.11
2019-02-15T10:57:52.233Z,9.03
2019-02-15T11:00:21.899Z,9.03
2019-02-15T11:02:51.319Z,9.50
2019-02-15T11:05:20.886Z,9.50
2019-02-15T11:07:50.500Z,9.66
2019-02-15T11:10:19.922Z,9.75
2019-02-15T11:12:49.421Z,9.97
2019-02-15T11:15:18.827Z,10.05
2019-02-15T11:17:48.239Z,10.13
2019-02-15T11:20:18.050Z,10.40
2019-02-15T11:22:47.465Z,10.37
2019-02-15T11:25:16.942Z,10.40
2019-02-15T11:27:46.378Z,10.45
2019-02-15T11:30:15.986Z,10.43
2019-02-15T11:32:45.415Z,10.57
2019-02-15T11:35:14.954Z,10.66
2019-02-15T11:37:44.362Z,10.80
2019-02-15T11:40:14.395Z,10.99
2019-02-15T11:42:43.803Z,11.13
2019-02-15T11:45:13.637Z,11.44
2019-02-15T11:47:43.085Z,11.73
2019-02-15T11:50:13.331Z,11.86
2019-02-15T11:52:42.716Z,12.13
2019-02-15T11:55:12.313Z,12.19
2019-02-15T11:57:44.629Z,11.95
2019-02-15T12:00:18.449Z,12.34
2019-02-15T12:02:48.397Z,12.50
2019-02-15T12:05:17.892Z,12.87
2019-02-15T12:07:47.277Z,13.27
2019-02-15T12:10:16.698Z,13.46
2019-02-15T12:12:46.090Z,13.79
2019-02-15T12:15:15.495Z,14.05
2019-02-15T12:17:45.005Z,14.42
2019-02-15T12:20:14.456Z,14.83
2019-02-15T12:22:44.237Z,15.34
2019-02-15T12:25:13.765Z,15.95
2019-02-15T12:27:43.159Z,16.42
2019-02-15T12:30:13.105Z,17.02
2019-02-15T12:32:42.674Z,17.63
2019-02-15T12:35:12.055Z,18.49
2019-02-15T12:37:41.696Z,18.90
2019-02-15T12:40:11.086Z,19.34
2019-02-15T12:42:40.569Z,20.12
2019-02-15T12:45:10.794Z,20.51
2019-02-15T12:47:40.219Z,19.26
2019-02-15T12:50:11.983Z,19.80
2019-02-15T12:52:41.392Z,21.27
2019-02-15T12:55:10.985Z,21.28
2019-02-15T12:57:40.370Z,22.12
2019-02-15T13:00:12.745Z,22.56
2019-02-15T13:02:42.148Z,22.38
2019-02-15T13:05:12.037Z,22.92
2019-02-15T13:07:41.688Z,23.88
2019-02-15T13:10:13.076Z,23.44
2019-02-15T13:12:43.220Z,25.09
2019-02-15T13:15:12.844Z,26.05
2019-02-15T13:17:42.256Z,25.19
2019-02-15T13:20:11.855Z,26.59
2019-02-15T13:22:41.258Z,27.60
2019-02-15T13:25:10.667Z,27.94
2019-02-15T13:27:40.085Z,27.16
2019-02-15T13:30:11.125Z,28.22
2019-02-15T13:32:40.617Z,28.89
2019-02-15T13:35:11.697Z,29.22
2019-02-15T13:37:41.522Z,29.31
2019-02-15T13:40:11.029Z,29.06
2019-02-15T13:42:40.653Z,27.27
2019-02-15T13:45:11.029Z,29.25
2019-02-15T13:47:41.048Z,28.84
2019-02-15T13:50:11.601Z,28.94
2019-02-15T13:52:40.986Z,30.09
2019-02-15T13:55:10.724Z,29.92
2019-02-15T13:57:40.237Z,29.91
2019-02-15T14:00:11.271Z,30.47
2019-02-15T14:02:40.817Z,29.95
2019-02-15T14:05:11.000Z,30.18
2019-02-15T14:07:40.509Z,30.47
2019-02-15T14:10:11.169Z,31.32
2019-02-15T14:12:40.836Z,31.49
2019-02-15T14:15:11.085Z,30.16
2019-02-15T14:17:45.316Z,31.20
2019-02-15T14:20:12.114Z,31.26
2019-02-15T14:22:41.781Z,31.89
2019-02-15T14:25:11.494Z,30.75
2019-02-15T14:27:41.463Z,31.40
2019-02-15T14:30:11.571Z,30.23
2019-02-15T14:32:40.967Z,29.83
2019-02-15T14:35:10.601Z,30.53
2019-02-15T14:37:40.172Z,29.47
2019-02-15T14:40:10.036Z,28.94
2019-02-15T14:42:39.459Z,29.08
2019-02-15T14:45:09.523Z,29.90
2019-02-15T14:47:39.043Z,28.88
2019-02-15T14:50:08.735Z,28.16
2019-02-15T14:52:38.150Z,27.86
2019-02-15T14:55:07.932Z,26.41
2019-02-15T14:57:37.309Z,24.92
2019-02-15T15:00:09.377Z,23.00
2019-02-15T15:02:38.810Z,21.23
2019-02-15T15:05:08.731Z,20.58
2019-02-15T15:07:38.140Z,19.53
2019-02-15T15:10:08.593Z,18.86
2019-02-15T15:12:38.103Z,18.08
2019-02-15T15:15:08.849Z,18.19
2019-02-15T15:17:38.380Z,17.77
2019-02-15T15:20:09.409Z,17.42
2019-02-15T15:22:38.947Z,17.12
2019-02-15T15:25:09.886Z,16.93
2019-02-15T15:27:39.542Z,16.91
2019-02-15T15:30:10.547Z,16.89
2019-02-15T15:32:40.011Z,16.59
2019-02-15T15:35:09.758Z,16.34
2019-02-15T15:37:39.192Z,16.18
2019-02-15T15:40:09.905Z,15.96
2019-02-15T15:42:39.421Z,15.74
2019-02-15T15:45:10.163Z,15.68
2019-02-15T15:47:39.641Z,15.55
2019-02-15T15:50:10.307Z,15.62
2019-02-15T15:52:39.840Z,15.29
2019-02-15T15:55:10.644Z,15.19
2019-02-15T15:57:40.083Z,15.11
2019-02-15T16:00:11.163Z,14.96
2019-02-15T16:02:41.174Z,14.97
2019-02-15T16:05:10.731Z,14.91
2019-02-15T16:07:40.125Z,14.80
2019-02-15T16:10:10.936Z,14.71
2019-02-15T16:12:40.368Z,14.59
2019-02-15T16:15:10.869Z,14.53
2019-02-15T16:17:40.406Z,14.36
2019-02-15T16:20:10.780Z,14.33
2019-02-15T16:22:40.385Z,14.21
2019-02-15T16:25:10.087Z,14.05
2019-02-15T16:27:39.516Z,13.92
2019-02-15T16:30:10.447Z,13.98
2019-02-15T16:32:39.867Z,13.59
2019-02-15T16:35:09.689Z,13.56
2019-02-15T16:37:39.141Z,13.37
2019-02-15T16:40:11.777Z,13.26
2019-02-15T16:42:41.280Z,13.13
2019-02-15T16:45:13.333Z,13.01
2019-02-15T16:47:42.833Z,12.95
2019-02-15T16:50:12.269Z,12.84
2019-02-15T16:52:41.664Z,12.71
2019-02-15T16:55:13.194Z,12.68
2019-02-15T16:57:42.226Z,12.63
2019-02-15T17:00:11.623Z,12.37
2019-02-15T17:02:41.105Z,12.47
2019-02-15T17:05:10.764Z,12.45
2019-02-15T17:07:40.219Z,12.21
2019-02-15T17:10:09.778Z,12.21
2019-02-15T17:12:39.163Z,11.92
2019-02-15T17:15:09.482Z,11.88
2019-02-15T17:17:39.068Z,11.79
2019-02-15T17:20:09.356Z,11.72
2019-02-15T17:22:39.074Z,11.66
2019-02-15T17:25:09.542Z,11.59
2019-02-15T17:27:38.971Z,11.57
2019-02-15T17:30:09.127Z,11.52
2019-02-15T17:32:38.616Z,11.50
2019-02-15T17:35:08.964Z,11.30
2019-02-15T17:37:38.371Z,11.22
2019-02-15T17:40:09.200Z,11.26
